Other Surface Observations
Issued by NWS Great Falls, MT

Home | Current Version | Previous Version | Text Only | Print | Product List | Glossary On
Versions: 1 2 3 4 5 6 7 8 9 10 11 12 13 14 15 16 17 18 19 20 21 22 23 24 25 26 27 28 29 30 31 32 33 34 35 36 37 38 39 40 41 42 43 44 45 46 47 48 49 50
000
SXUS55 KTFX 271605
OSOTFX

AREA AWOS OBSERVATIONS
NATIONAL WEATHER SERVICE GREAT FALLS MT
1005 AM MDT Sun May 27 2018

METAR K7S1 271455Z AUTO 36011KT 40SM 16/07 A3005 RMK A01 T01550072
METAR K97M 271455Z AUTO 04003KT 40SM 18/11 A2994 RMK A01 T01770111
METAR K9S2 271455Z AUTO 34014KT 25SM 18/09 A2993 RMK A01 T01830088
METAR KRPX 271455Z AUTO 19007KT 40SM 16/11 A2992 RMK A01 T01550105
METAR KS34 271455Z AUTO 08000KT 40SM 12/11 A3013 RMK A01 T01160105
METAR KTHM 271455Z AUTO 22000KT 40SM 13/09 A3016 RMK A01 T01270094



USA.gov is the U.S. government's official web portal to all federal, state and local government web resources and services.